Heute – Wetterdaten im Stunden Intervall

Wetterdaten stündlich vom aktuellen Tag
DatumAussentemperaturLuftdruckLuftfeuchtigkeitWindstärke Windböe Regen
23.08.19, 21:00 23.4 °C 1022.8 hPa 57 % 0.0 km/h 0.0 km/h 0.0 mm
23.08.19, 20:05 25.9 °C 1022.5 hPa 49 % 0.0 km/h 3.2 km/h 0.0 mm
23.08.19, 19:05 28.8 °C 1022.5 hPa 40 % 3.2 km/h 5.0 km/h 0.0 mm
23.08.19, 18:05 30.3 °C 1022.9 hPa 36 % 1.8 km/h 5.0 km/h 0.0 mm
23.08.19, 17:05 29.9 °C 1023.3 hPa 35 % 0.0 km/h 6.8 km/h 0.0 mm
23.08.19, 16:05 30.1 °C 1023.9 hPa 33 % 6.8 km/h 6.8 km/h 0.0 mm
23.08.19, 15:05 29.2 °C 1024.1 hPa 37 % 1.8 km/h 6.8 km/h 0.0 mm
23.08.19, 14:05 28.9 °C 1024.8 hPa 39 % 0.0 km/h 3.2 km/h 0.0 mm
23.08.19, 13:05 27.1 °C 1025.4 hPa 46 % 1.8 km/h 11.9 km/h 0.0 mm
23.08.19, 12:00 25.6 °C 1026.0 hPa 51 % 0.0 km/h 8.6 km/h 0.0 mm
23.08.19, 11:05 24.7 °C 1026.2 hPa 54 % 1.8 km/h 5.0 km/h 0.0 mm
23.08.19, 10:05 21.5 °C 1026.2 hPa 67 % 0.0 km/h 1.8 km/h 0.0 mm
23.08.19, 09:05 18.2 °C 1026.1 hPa 79 % 0.0 km/h 1.8 km/h 0.0 mm
23.08.19, 08:05 12.7 °C 1026.0 hPa 95 % 0.0 km/h 0.0 km/h 0.0 mm
23.08.19, 07:00 11.8 °C 1025.9 hPa 94 % 0.0 km/h 0.0 km/h 0.0 mm
23.08.19, 06:05 12.3 °C 1025.9 hPa 92 % 0.0 km/h 0.0 km/h 0.0 mm
23.08.19, 05:05 12.6 °C 1026.0 hPa 91 % 0.0 km/h 0.0 km/h 0.0 mm
23.08.19, 04:05 13.1 °C 1026.0 hPa 90 % 0.0 km/h 0.0 km/h 0.0 mm
23.08.19, 03:05 13.7 °C 1025.8 hPa 88 % 0.0 km/h 0.0 km/h 0.0 mm
23.08.19, 02:05 14.2 °C 1025.6 hPa 85 % 0.0 km/h 0.0 km/h 0.0 mm
23.08.19, 01:05 15.2 °C 1025.6 hPa 81 % 0.0 km/h 0.0 km/h 0.0 mm
23.08.19, 00:00 16.7 °C 1025.5 hPa 75 % 0.0 km/h 0.0 km/h 0.0 mm